Enter the Airport ICAO Code

Search by Airport or City

Current Weather

SKBQ | Ernesto Cortissoz International Airport

Barranquilla, Colombia

Last Update 10 Minutes Ago

Sky with Few Clouds

Temperature of 26 ºC

Light to Moderate Winds from North

Temperature

26 ºC

Dew Point Temperature

21 ºC

Relative Humidity

74.11 %

Wind Direction

North (360º, Without Significant Variations)

Wind Velocity

15 km/h (08 kt)

Gusts

None

Visibility

Greater than 10 Kilometers

Sea Level Pressure

1009 hPa (Hectopascals)

Layers of Clouds

5% to 30% of Sky Covered from 457 mts (1500 ft) Above Ground Level.

METAR SKBQ 091000Z 36008KT 9999 FEW015 26/21 Q1009 NOSIG RMK A2982

Weather Forecast

SKBQ | Ernesto Cortissoz International Airport

Barranquilla, Colombia

Forecast valid for the next 20 Hours

From now on it is expected:

Partly Cloudy Sky

Moderate Winds from North

In 13 hours it is expected the begining of 3 hours with intermittent periods of:

Moderate Winds from NorthEast with Gusts

Maximum Temperature

No Data

Minimum Temperature

No Data

TAF SKBQ 090430Z 0906/1006 01012KT 9999 FEW015 SCT080 TEMPO 0923/1002 03015G25KT TX31/0916Z TN25/0909Z